Wrightsville, Ohio
Current Conditions -  °F | °C
As of 12:35 PM on Sunday 23 Nov 2014 (Local Time) from KFGX Reporting Station
Overcast Overcast  
Wind Chill: 16°   Ceiling: 6000
Heat Index: 16°   Visibility: 10mi
Dew Point:   Wind: 9mph
Humidity: 54%   Direction: 140°SE
Pressure: 29.84"   Gusts: NA
Location:  38.7042°N, 83.6081°W
Report Text: KFGX 231735Z AUTO 14008KT 10SM OVC060 16/06 A2984 RMK AO2 T01560062
Loading
Personal Weather Stations






























Interactive Weather Map New forecast layout! Learn more

10-Day Weather Forecast

Advertisements
Track Severe Weather on mobile